createdAt,value
2017-07-12T00:00:49.616Z,1010.61
2017-07-12T00:01:58.518Z,1010.62
2017-07-12T00:03:07.373Z,1010.66
2017-07-12T00:04:16.233Z,1010.63
2017-07-12T00:05:25.087Z,1010.6
2017-07-12T00:06:33.942Z,1010.56
2017-07-12T00:07:42.950Z,1010.51
2017-07-12T00:08:51.808Z,1010.58
2017-07-12T00:10:00.662Z,1010.55
2017-07-12T00:11:09.518Z,1010.5
2017-07-12T00:12:18.388Z,1010.53
2017-07-12T00:13:27.382Z,1010.51
2017-07-12T00:14:36.238Z,1010.48
2017-07-12T00:15:45.096Z,1010.48
2017-07-12T00:16:53.952Z,1010.4
2017-07-12T00:18:02.808Z,1010.4
2017-07-12T00:19:11.966Z,1010.36
2017-07-12T00:20:20.823Z,1010.33
2017-07-12T00:21:29.677Z,1010.28
2017-07-12T00:22:38.533Z,1010.32
2017-07-12T00:23:47.392Z,1010.33
2017-07-12T00:24:56.396Z,1010.33
2017-07-12T00:26:05.248Z,1010.31
2017-07-12T00:27:14.105Z,1010.3
2017-07-12T00:28:22.960Z,1010.3
2017-07-12T00:29:31.814Z,1010.28
2017-07-12T00:30:40.768Z,1010.25
2017-07-12T00:31:49.624Z,1010.23
2017-07-12T00:32:58.480Z,1010.23
2017-07-12T00:34:07.363Z,1010.18
2017-07-12T00:35:16.192Z,1010.18
2017-07-12T00:36:25.250Z,1010.2
2017-07-12T00:37:34.105Z,1010.09
2017-07-12T00:38:42.963Z,1010.15
2017-07-12T00:39:51.818Z,1010.2
2017-07-12T00:41:00.674Z,1010.12
2017-07-12T00:42:09.678Z,1010.14
2017-07-12T00:43:18.532Z,1010.14
2017-07-12T00:44:27.387Z,1010.1
2017-07-12T00:45:36.248Z,1010.09
2017-07-12T00:46:45.102Z,1010.09
2017-07-12T00:47:54.009Z,1010.11
2017-07-12T00:49:02.865Z,1010.1
2017-07-12T00:50:11.720Z,1010.11
2017-07-12T00:51:20.575Z,1010.09
2017-07-12T00:52:29.430Z,1010.07
2017-07-12T00:53:38.819Z,1010.06
2017-07-12T00:54:47.673Z,1010.04
2017-07-12T00:55:56.863Z,1010.01
2017-07-12T00:57:05.719Z,1010
2017-07-12T00:58:14.574Z,1009.94
2017-07-12T00:59:23.530Z,1009.89
2017-07-12T01:00:32.385Z,1009.83
2017-07-12T01:01:41.293Z,1009.84
2017-07-12T01:02:50.148Z,1009.85
2017-07-12T01:03:59.002Z,1009.86
2017-07-12T01:05:08.159Z,1009.8
2017-07-12T01:06:17.015Z,1009.84
2017-07-12T01:07:25.872Z,1009.78
2017-07-12T01:08:34.729Z,1009.83
2017-07-12T01:09:43.586Z,1009.77
2017-07-12T01:10:52.839Z,1009.77
2017-07-12T01:12:02.026Z,1009.7
2017-07-12T01:13:10.882Z,1009.74
2017-07-12T01:14:19.736Z,1009.72
2017-07-12T01:15:28.594Z,1009.69
2017-07-12T01:16:37.449Z,1009.66
2017-07-12T01:17:46.306Z,1009.67
2017-07-12T01:18:55.160Z,1009.66
2017-07-12T01:20:04.015Z,1009.61
2017-07-12T01:21:12.871Z,1009.59
2017-07-12T01:22:21.875Z,1009.64
2017-07-12T01:23:30.728Z,1009.61
2017-07-12T01:24:39.737Z,1009.6
2017-07-12T01:25:48.592Z,1009.59
2017-07-12T01:26:57.448Z,1009.62
2017-07-12T01:28:06.602Z,1009.64
2017-07-12T01:29:15.459Z,1009.69
2017-07-12T01:30:24.315Z,1009.69
2017-07-12T01:31:33.171Z,1009.71
2017-07-12T01:32:42.026Z,1009.75
2017-07-12T01:33:50.980Z,1009.8
2017-07-12T01:34:59.835Z,1009.84
2017-07-12T01:36:08.691Z,1009.92
2017-07-12T01:37:17.546Z,1009.92
2017-07-12T01:38:26.403Z,1009.91
2017-07-12T01:39:35.257Z,1009.93
2017-07-12T01:40:44.109Z,1009.9
2017-07-12T01:41:52.966Z,1009.88
2017-07-12T01:43:01.821Z,1009.92
2017-07-12T01:44:10.679Z,1009.88
2017-07-12T01:45:20.070Z,1009.85
2017-07-12T01:46:28.924Z,1009.88
2017-07-12T01:47:37.777Z,1009.87
2017-07-12T01:48:46.633Z,1009.92
2017-07-12T01:49:55.829Z,1009.89
2017-07-12T01:51:05.088Z,1009.92
2017-07-12T01:52:13.945Z,1009.97
2017-07-12T01:53:22.799Z,1010
2017-07-12T01:54:31.654Z,1010
2017-07-12T01:55:40.508Z,1010.1
2017-07-12T01:56:49.514Z,1010.08
2017-07-12T01:57:58.705Z,1010.05
2017-07-12T01:59:07.560Z,1010.05
2017-07-12T02:00:16.416Z,1010.03
2017-07-12T02:01:25.269Z,1010.02
2017-07-12T02:02:34.273Z,1010.02
2017-07-12T02:03:43.137Z,1010.01
2017-07-12T02:04:51.991Z,1009.98
2017-07-12T02:06:00.845Z,1009.96
2017-07-12T02:07:09.702Z,1009.94
2017-07-12T02:08:18.608Z,1009.96
2017-07-12T02:09:27.460Z,1009.97
2017-07-12T02:10:36.315Z,1009.97
2017-07-12T02:11:45.172Z,1009.91
2017-07-12T02:12:54.027Z,1009.93
2017-07-12T02:14:03.033Z,1009.94
2017-07-12T02:15:11.890Z,1009.89
2017-07-12T02:16:20.747Z,1009.89
2017-07-12T02:17:29.605Z,1009.93
2017-07-12T02:18:38.458Z,1009.87
2017-07-12T02:19:47.412Z,1009.9
2017-07-12T02:20:56.268Z,1009.88
2017-07-12T02:22:05.120Z,1009.88
2017-07-12T02:23:13.971Z,1009.91
2017-07-12T02:24:22.825Z,1009.89
2017-07-12T02:25:32.110Z,1009.89
2017-07-12T02:26:41.300Z,1009.88
2017-07-12T02:27:50.154Z,1009.83
2017-07-12T02:28:59.008Z,1009.85
2017-07-12T02:30:07.864Z,1009.83
2017-07-12T02:31:16.819Z,1009.79
2017-07-12T02:32:25.674Z,1009.79
2017-07-12T02:33:34.527Z,1009.75
2017-07-12T02:34:43.721Z,1009.73
2017-07-12T02:35:52.571Z,1009.73
2017-07-12T02:37:01.576Z,1009.75
2017-07-12T02:38:10.433Z,1009.71
2017-07-12T02:39:19.287Z,1009.72
2017-07-12T02:40:28.144Z,1009.74
2017-07-12T02:41:37.001Z,1009.71
2017-07-12T02:44:26.817Z,1009.67
2017-07-12T02:45:35.671Z,1009.64
2017-07-12T02:46:44.526Z,1009.64
2017-07-12T02:47:53.533Z,1009.66
2017-07-12T02:49:02.388Z,1009.68
2017-07-12T02:50:11.241Z,1009.64
2017-07-12T02:51:20.098Z,1009.67
2017-07-12T02:52:28.953Z,1009.67
2017-07-12T02:53:38.210Z,1009.64
2017-07-12T02:54:47.065Z,1009.64
2017-07-12T02:55:55.920Z,1009.62
2017-07-12T02:57:04.774Z,1009.62
2017-07-12T02:58:13.630Z,1009.57
2017-07-12T02:59:22.633Z,1009.54
2017-07-12T03:00:31.488Z,1009.53
2017-07-12T03:01:40.341Z,1009.54
2017-07-12T03:02:49.196Z,1009.52
2017-07-12T03:03:58.053Z,1009.54
2017-07-12T03:05:06.908Z,1009.51
2017-07-12T03:06:15.761Z,1009.55
2017-07-12T03:07:24.615Z,1009.51
2017-07-12T03:08:33.470Z,1009.51
2017-07-12T03:09:42.327Z,1009.54
2017-07-12T03:10:51.231Z,1009.53
2017-07-12T03:12:00.086Z,1009.53
2017-07-12T03:13:08.944Z,1009.53
2017-07-12T03:14:17.801Z,1009.51
2017-07-12T03:15:26.657Z,1009.51
2017-07-12T03:16:35.663Z,1009.52
2017-07-12T03:17:44.519Z,1009.48
2017-07-12T03:18:53.373Z,1009.48
2017-07-12T03:20:02.230Z,1009.48
2017-07-12T03:21:11.085Z,1009.48
2017-07-12T03:22:20.341Z,1009.47
2017-07-12T03:23:29.196Z,1009.45
2017-07-12T03:24:38.050Z,1009.51
2017-07-12T03:25:46.906Z,1009.52
2017-07-12T03:26:55.761Z,1009.48
2017-07-12T03:28:04.613Z,1009.52
2017-07-12T03:29:13.469Z,1009.5
2017-07-12T03:30:22.327Z,1009.48
2017-07-12T03:31:31.182Z,1009.44
2017-07-12T03:32:40.038Z,1009.47
2017-07-12T03:33:49.383Z,1009.43
2017-07-12T03:34:58.240Z,1009.45
2017-07-12T03:36:07.095Z,1009.46
2017-07-12T03:37:16.285Z,1009.37
2017-07-12T03:38:25.196Z,1009.38
2017-07-12T03:39:34.197Z,1009.33
2017-07-12T03:40:43.053Z,1009.32
2017-07-12T03:41:51.909Z,1009.33
2017-07-12T03:43:00.766Z,1009.29
2017-07-12T03:44:09.619Z,1009.29
2017-07-12T03:45:18.524Z,1009.32
2017-07-12T03:46:27.378Z,1009.28
2017-07-12T03:47:36.234Z,1009.29
2017-07-12T03:48:45.091Z,1009.28
2017-07-12T03:49:54.293Z,1009.28
2017-07-12T03:51:03.496Z,1009.25
2017-07-12T03:52:12.351Z,1009.21
2017-07-12T03:53:21.207Z,1009.22
2017-07-12T03:54:30.061Z,1009.25
2017-07-12T03:55:38.913Z,1009.16
2017-07-12T03:56:47.869Z,1009.2
2017-07-12T03:57:56.725Z,1009.18
2017-07-12T03:59:05.583Z,1009.14
2017-07-12T04:00:14.438Z,1009.16
2017-07-12T04:01:23.297Z,1009.16
2017-07-12T04:02:32.301Z,1009.13
2017-07-12T04:03:41.155Z,1009.11
2017-07-12T04:04:50.012Z,1009.07
2017-07-12T04:05:58.867Z,1009.04
2017-07-12T04:07:07.722Z,1009.04
2017-07-12T04:08:16.677Z,1009.03
2017-07-12T04:09:25.531Z,1008.98
2017-07-12T04:10:34.386Z,1008.95
2017-07-12T04:11:43.243Z,1008.94
2017-07-12T04:12:52.097Z,1008.99
2017-07-12T04:14:00.954Z,1008.94
2017-07-12T04:15:09.808Z,1008.96
2017-07-12T04:16:18.663Z,1008.99
2017-07-12T04:17:27.518Z,1008.94
2017-07-12T04:18:36.372Z,1008.95
2017-07-12T04:19:45.627Z,1008.91
2017-07-12T04:20:54.482Z,1008.9
2017-07-12T04:22:03.338Z,1008.89
2017-07-12T04:23:12.193Z,1008.87
2017-07-12T04:24:21.049Z,1008.85
2017-07-12T04:25:30.055Z,1008.81
2017-07-12T04:26:38.912Z,1008.83
2017-07-12T04:27:47.766Z,1008.77
2017-07-12T04:28:56.953Z,1008.77
2017-07-12T04:30:05.804Z,1008.77
2017-07-12T04:31:14.810Z,1008.83
2017-07-12T04:32:23.666Z,1008.81
2017-07-12T04:33:32.521Z,1008.78
2017-07-12T04:34:41.374Z,1008.84
2017-07-12T04:35:50.229Z,1008.78
2017-07-12T04:36:59.135Z,1008.77
2017-07-12T04:38:07.990Z,1008.77
2017-07-12T04:39:16.845Z,1008.75
2017-07-12T04:40:25.697Z,1008.71
2017-07-12T04:41:34.555Z,1008.68
2017-07-12T04:42:43.660Z,1008.7
2017-07-12T04:43:52.516Z,1008.68
2017-07-12T04:45:01.710Z,1008.64
2017-07-12T04:46:10.565Z,1008.6
2017-07-12T04:47:19.421Z,1008.64
2017-07-12T04:48:28.325Z,1008.61
2017-07-12T04:49:37.185Z,1008.59
2017-07-12T04:50:46.042Z,1008.56
2017-07-12T04:51:54.896Z,1008.58
2017-07-12T04:53:04.086Z,1008.56
2017-07-12T04:54:13.342Z,1008.58
2017-07-12T04:55:22.196Z,1008.56
2017-07-12T04:56:31.050Z,1008.56
2017-07-12T04:57:39.904Z,1008.52
2017-07-12T04:58:48.760Z,1008.49
2017-07-12T04:59:57.915Z,1008.5
2017-07-12T05:01:07.104Z,1008.55
2017-07-12T05:02:15.961Z,1008.51
2017-07-12T05:03:24.814Z,1008.49
2017-07-12T05:04:33.671Z,1008.5
2017-07-12T05:05:42.578Z,1008.47
2017-07-12T05:06:51.432Z,1008.46
2017-07-12T05:08:00.288Z,1008.48
2017-07-12T05:09:09.143Z,1008.46
2017-07-12T05:10:18.000Z,1008.45
2017-07-12T05:11:27.155Z,1008.41
2017-07-12T05:12:36.011Z,1008.41
2017-07-12T05:13:44.869Z,1008.46
2017-07-12T05:14:53.725Z,1008.41
2017-07-12T05:16:02.580Z,1008.4
2017-07-12T05:17:11.538Z,1008.38
2017-07-12T05:18:20.390Z,1008.42
2017-07-12T05:19:29.244Z,1008.38
2017-07-12T05:20:38.101Z,1008.43
2017-07-12T05:21:46.957Z,1008.43
2017-07-12T05:22:55.963Z,1008.38
2017-07-12T05:24:04.817Z,1008.39
2017-07-12T05:25:13.673Z,1008.39
2017-07-12T05:26:22.528Z,1008.41
2017-07-12T05:27:31.385Z,1008.4
2017-07-12T05:28:40.350Z,1008.41
2017-07-12T05:29:49.479Z,1008.41
2017-07-12T05:30:58.335Z,1008.34
2017-07-12T05:32:07.190Z,1008.33
2017-07-12T05:33:16.382Z,1008.32
2017-07-12T05:34:25.723Z,1008.36
2017-07-12T05:35:34.579Z,1008.35
2017-07-12T05:36:43.437Z,1008.33
2017-07-12T05:37:52.627Z,1008.35
2017-07-12T05:39:01.483Z,1008.36
2017-07-12T05:40:10.438Z,1008.3
2017-07-12T05:41:19.293Z,1008.39
2017-07-12T05:42:28.148Z,1008.31
2017-07-12T05:43:37.001Z,1008.37
2017-07-12T05:44:45.854Z,1008.34
2017-07-12T05:45:54.763Z,1008.31
2017-07-12T05:47:03.619Z,1008.3
2017-07-12T05:48:12.477Z,1008.27
2017-07-12T05:49:21.332Z,1008.28
2017-07-12T05:50:30.190Z,1008.24
2017-07-12T05:51:39.094Z,1008.31
2017-07-12T05:52:47.951Z,1008.29
2017-07-12T05:53:56.808Z,1008.3
2017-07-12T05:55:05.664Z,1008.28
2017-07-12T05:56:14.522Z,1008.3
2017-07-12T05:57:23.530Z,1008.28
2017-07-12T05:58:32.386Z,1008.27
2017-07-12T05:59:41.241Z,1008.29
2017-07-12T06:00:50.099Z,1008.3
2017-07-12T06:01:58.957Z,1008.3
2017-07-12T06:03:07.964Z,1008.33
2017-07-12T06:04:16.820Z,1008.3
2017-07-12T06:05:25.678Z,1008.36
2017-07-12T06:06:34.536Z,1008.32
2017-07-12T06:07:43.393Z,1008.32
2017-07-12T06:08:52.299Z,1008.31
2017-07-12T06:10:01.155Z,1008.36
2017-07-12T06:11:10.010Z,1008.33
2017-07-12T06:12:18.866Z,1008.36
2017-07-12T06:13:27.721Z,1008.34
2017-07-12T06:14:36.728Z,1008.36
2017-07-12T06:15:45.583Z,1008.29
2017-07-12T06:16:54.440Z,1008.3
2017-07-12T06:18:03.295Z,1008.29
2017-07-12T06:19:12.151Z,1008.26
2017-07-12T06:20:21.442Z,1008.24
2017-07-12T06:21:30.296Z,1008.27
2017-07-12T06:22:39.155Z,1008.23
2017-07-12T06:23:48.011Z,1008.23
2017-07-12T06:24:56.864Z,1008.25
2017-07-12T06:26:05.920Z,1008.25
2017-07-12T06:27:15.115Z,1008.22
2017-07-12T06:28:23.971Z,1008.23
2017-07-12T06:29:32.828Z,1008.2
2017-07-12T06:30:41.683Z,1008.21
2017-07-12T06:31:50.689Z,1008.23
2017-07-12T06:32:59.547Z,1008.21
2017-07-12T06:34:08.402Z,1008.21
2017-07-12T06:35:17.259Z,1008.21
2017-07-12T06:36:26.118Z,1008.14
2017-07-12T06:37:35.125Z,1008.13
2017-07-12T06:38:43.985Z,1008.11
2017-07-12T06:39:52.843Z,1008.09
2017-07-12T06:41:01.705Z,1008.08
2017-07-12T06:42:10.903Z,1008.06
2017-07-12T06:43:19.912Z,1008.07
2017-07-12T06:44:28.767Z,1008.03
2017-07-12T06:45:37.625Z,1008.01
2017-07-12T06:46:46.481Z,1008
2017-07-12T06:47:55.335Z,1007.96
2017-07-12T06:49:04.774Z,1007.93
2017-07-12T06:50:13.628Z,1007.94
2017-07-12T06:51:22.506Z,1007.94
2017-07-12T06:52:31.371Z,1007.92
2017-07-12T06:53:40.250Z,1007.97
2017-07-12T06:54:49.317Z,1007.93
2017-07-12T06:55:58.206Z,1007.95
2017-07-12T06:57:07.113Z,1007.93
2017-07-12T06:58:16.023Z,1007.9
2017-07-12T06:59:24.890Z,1007.89
2017-07-12T07:00:33.853Z,1007.91
2017-07-12T07:01:42.711Z,1007.89
2017-07-12T07:02:51.602Z,1007.87
2017-07-12T07:04:00.461Z,1007.9
2017-07-12T07:05:09.316Z,1007.85
2017-07-12T07:06:18.485Z,1007.81
2017-07-12T07:07:27.507Z,1007.87
2017-07-12T07:08:36.791Z,1007.82
2017-07-12T07:09:45.831Z,1007.85
2017-07-12T07:10:54.702Z,1007.87
2017-07-12T07:12:03.732Z,1007.84
2017-07-12T07:13:12.596Z,1007.86
2017-07-12T07:14:21.487Z,1007.83
2017-07-12T07:15:30.349Z,1007.85
2017-07-12T07:16:39.262Z,1007.8
2017-07-12T07:17:48.388Z,1007.81
2017-07-12T07:18:57.269Z,1007.83
2017-07-12T07:20:06.143Z,1007.81
2017-07-12T07:21:15.038Z,1007.81
2017-07-12T07:22:23.903Z,1007.82
2017-07-12T07:23:32.892Z,1007.83
2017-07-12T07:24:41.904Z,1007.85
2017-07-12T07:25:50.794Z,1007.82
2017-07-12T07:26:59.652Z,1007.78
2017-07-12T07:28:08.624Z,1007.75
2017-07-12T07:29:17.690Z,1007.73
2017-07-12T07:30:26.599Z,1007.75
2017-07-12T07:31:35.541Z,1007.73
2017-07-12T07:32:44.801Z,1007.67
2017-07-12T07:33:53.771Z,1007.71
2017-07-12T07:35:02.734Z,1007.7
2017-07-12T07:36:11.620Z,1007.7
2017-07-12T07:37:20.481Z,1007.65
2017-07-12T07:38:29.364Z,1007.62
2017-07-12T07:39:38.294Z,1007.58
2017-07-12T07:40:47.354Z,1007.62
2017-07-12T07:41:56.226Z,1007.61
2017-07-12T07:43:05.435Z,1007.63
2017-07-12T07:44:14.408Z,1007.59
2017-07-12T07:45:23.668Z,1007.55
2017-07-12T07:46:32.852Z,1007.61
2017-07-12T07:47:41.735Z,1007.54
2017-07-12T07:48:50.654Z,1007.51
2017-07-12T07:49:59.558Z,1007.54
2017-07-12T07:51:08.456Z,1007.52
2017-07-12T07:52:17.515Z,1007.51
2017-07-12T07:53:26.379Z,1007.51
2017-07-12T07:54:35.326Z,1007.5
2017-07-12T07:55:44.226Z,1007.47
2017-07-12T07:56:53.123Z,1007.47
2017-07-12T07:58:02.069Z,1007.48
2017-07-12T07:59:10.967Z,1007.46
2017-07-12T08:00:19.837Z,1007.41
2017-07-12T08:01:28.757Z,1007.42
2017-07-12T08:02:37.697Z,1007.38
2017-07-12T08:03:46.772Z,1007.4
2017-07-12T08:04:55.652Z,1007.4
2017-07-12T08:06:04.608Z,1007.42
2017-07-12T08:07:13.566Z,1007.42
2017-07-12T08:08:22.526Z,1007.36
2017-07-12T08:09:31.702Z,1007.32
2017-07-12T08:10:40.620Z,1007.37
2017-07-12T08:11:49.562Z,1007.37
2017-07-12T08:12:58.695Z,1007.33
2017-07-12T08:14:07.614Z,1007.35
2017-07-12T08:15:16.804Z,1007.36
2017-07-12T08:16:25.678Z,1007.38
2017-07-12T08:17:34.601Z,1007.37
2017-07-12T08:18:43.524Z,1007.39
2017-07-12T08:19:52.491Z,1007.35
2017-07-12T08:21:01.509Z,1007.41
2017-07-12T08:22:10.466Z,1007.35
2017-07-12T08:23:19.414Z,1007.37
2017-07-12T08:24:28.331Z,1007.36
2017-07-12T08:25:37.188Z,1007.41
2017-07-12T08:26:46.227Z,1007.4
2017-07-12T08:27:55.202Z,1007.39
2017-07-12T08:29:04.524Z,1007.37
2017-07-12T08:30:13.470Z,1007.31
2017-07-12T08:31:22.425Z,1007.3
2017-07-12T08:32:31.617Z,1007.33
2017-07-12T08:33:40.601Z,1007.33
2017-07-12T08:34:49.506Z,1007.32
2017-07-12T08:35:58.391Z,1007.28
2017-07-12T08:37:07.309Z,1007.3
2017-07-12T08:38:16.857Z,1007.31
2017-07-12T08:39:26.559Z,1007.33
2017-07-12T08:40:35.433Z,1007.35
2017-07-12T08:41:44.339Z,1007.31
2017-07-12T08:42:53.255Z,1007.32
2017-07-12T08:44:02.280Z,1007.33
2017-07-12T08:45:11.170Z,1007.31
2017-07-12T08:46:20.098Z,1007.3
2017-07-12T08:47:29.008Z,1007.31
2017-07-12T08:48:37.902Z,1007.29
2017-07-12T08:49:46.828Z,1007.27
2017-07-12T08:50:55.685Z,1007.31
2017-07-12T08:52:04.542Z,1007.28
2017-07-12T08:53:13.398Z,1007.29
2017-07-12T08:54:22.256Z,1007.26
2017-07-12T08:55:31.363Z,1007.28
2017-07-12T08:56:40.219Z,1007.29
2017-07-12T08:57:49.078Z,1007.29
2017-07-12T08:58:57.940Z,1007.29
2017-07-12T09:00:06.798Z,1007.3
2017-07-12T09:01:16.057Z,1007.28
2017-07-12T09:02:24.915Z,1007.29
2017-07-12T09:03:33.806Z,1007.26
2017-07-12T09:04:43.044Z,1007.28
2017-07-12T09:05:51.904Z,1007.33
2017-07-12T09:07:00.817Z,1007.29
2017-07-12T09:08:09.680Z,1007.33
2017-07-12T09:09:18.554Z,1007.27
2017-07-12T09:10:27.429Z,1007.26
2017-07-12T09:11:36.290Z,1007.26
2017-07-12T09:12:45.321Z,1007.21
2017-07-12T09:13:54.181Z,1007.23
2017-07-12T09:15:03.115Z,1007.21
2017-07-12T09:16:12.009Z,1007.22
2017-07-12T09:17:20.883Z,1007.19
2017-07-12T09:18:29.791Z,1007.21
2017-07-12T09:19:38.997Z,1007.21
2017-07-12T09:20:47.872Z,1007.2
2017-07-12T09:21:56.741Z,1007.18
2017-07-12T09:23:05.598Z,1007.23
2017-07-12T09:33:26.573Z,1007.18
2017-07-12T09:34:35.436Z,1007.18
2017-07-12T09:35:44.458Z,1007.19
2017-07-12T09:36:53.386Z,1007.17
2017-07-12T09:38:02.256Z,1007.18
2017-07-12T09:39:11.118Z,1007.15
2017-07-12T09:40:20.026Z,1007.13
2017-07-12T09:41:28.937Z,1007.13
2017-07-12T09:42:37.792Z,1007.11
2017-07-12T09:43:46.649Z,1007.09
2017-07-12T09:44:55.506Z,1007.13
2017-07-12T09:46:04.364Z,1007.11
2017-07-12T09:47:13.273Z,1007.09
2017-07-12T09:48:22.138Z,1007.03
2017-07-12T09:49:30.996Z,1007.09
2017-07-12T09:50:39.861Z,1007.07
2017-07-12T09:51:48.728Z,1007.05
2017-07-12T09:52:57.690Z,1007.03
2017-07-12T09:54:06.548Z,1007.02
2017-07-12T09:55:15.413Z,1007.02
2017-07-12T09:56:24.273Z,1007.01
2017-07-12T09:57:33.134Z,1007.01
2017-07-12T09:58:42.193Z,1006.98
2017-07-12T09:59:51.051Z,1006.98
2017-07-12T10:00:59.913Z,1006.98
2017-07-12T10:02:09.107Z,1006.96
2017-07-12T10:03:17.969Z,1006.97
2017-07-12T10:04:26.890Z,1006.97
2017-07-12T10:05:35.762Z,1006.97
2017-07-12T10:06:44.621Z,1006.97
2017-07-12T10:07:53.478Z,1006.92
2017-07-12T10:09:02.353Z,1006.95
2017-07-12T10:10:11.465Z,1006.97
2017-07-12T10:11:20.324Z,1006.91
2017-07-12T10:12:29.186Z,1006.9
2017-07-12T10:13:38.045Z,1006.91
2017-07-12T10:14:46.905Z,1006.9
2017-07-12T10:15:55.872Z,1006.91
2017-07-12T10:17:04.727Z,1006.92
2017-07-12T10:18:13.594Z,1006.89
2017-07-12T10:19:22.461Z,1006.86
2017-07-12T10:20:31.320Z,1006.89
2017-07-12T10:21:40.327Z,1006.89
2017-07-12T10:22:49.182Z,1006.87
2017-07-12T10:23:58.039Z,1006.83
2017-07-12T10:25:06.916Z,1006.81
2017-07-12T10:26:15.934Z,1006.8
2017-07-12T10:27:25.102Z,1006.82
2017-07-12T10:28:33.967Z,1006.82
2017-07-12T10:29:42.858Z,1006.79
2017-07-12T10:30:51.714Z,1006.82
2017-07-12T10:32:00.586Z,1006.83
2017-07-12T10:33:09.697Z,1006.86
2017-07-12T10:34:18.558Z,1006.83
2017-07-12T10:35:27.419Z,1006.85
2017-07-12T10:36:36.611Z,1006.86
2017-07-12T10:37:45.475Z,1006.86
2017-07-12T10:38:54.437Z,1006.85
2017-07-12T10:40:03.360Z,1006.82
2017-07-12T10:41:12.221Z,1006.81
2017-07-12T10:42:21.080Z,1006.8
2017-07-12T10:43:29.943Z,1006.85
2017-07-12T10:44:38.922Z,1006.89
2017-07-12T10:45:47.783Z,1006.88
2017-07-12T10:46:56.640Z,1006.92
2017-07-12T10:48:05.520Z,1006.9
2017-07-12T10:49:14.380Z,1006.91
2017-07-12T10:50:23.347Z,1006.92
2017-07-12T10:51:32.195Z,1006.94
2017-07-12T10:52:41.053Z,1006.93
2017-07-12T10:53:49.913Z,1006.92
2017-07-12T10:54:58.778Z,1006.92
2017-07-12T10:56:07.710Z,1006.92
2017-07-12T10:57:16.568Z,1006.92
2017-07-12T10:58:25.772Z,1006.92
2017-07-12T10:59:34.640Z,1006.9
2017-07-12T11:00:43.505Z,1006.93
2017-07-12T11:01:52.517Z,1006.92
2017-07-12T11:03:01.390Z,1006.9
2017-07-12T11:04:10.247Z,1006.94
2017-07-12T11:05:19.105Z,1006.97
2017-07-12T11:06:27.960Z,1006.96
2017-07-12T11:07:37.021Z,1006.98
2017-07-12T11:08:45.882Z,1007
2017-07-12T11:09:55.072Z,1007.04
2017-07-12T11:11:03.928Z,1007.03
2017-07-12T11:12:12.786Z,1007.07
2017-07-12T11:13:21.943Z,1007.08
2017-07-12T11:14:30.800Z,1007.08
2017-07-12T11:15:39.724Z,1007.07
2017-07-12T11:16:48.582Z,1007.06
2017-07-12T11:17:57.445Z,1007.09
2017-07-12T11:19:06.734Z,1007.12
2017-07-12T11:20:15.596Z,1007.08
2017-07-12T11:21:24.448Z,1007.05
2017-07-12T11:22:33.305Z,1007.13
2017-07-12T11:23:42.161Z,1007.11
2017-07-12T11:24:51.222Z,1007.12
2017-07-12T11:26:00.085Z,1007.1
2017-07-12T11:27:08.943Z,1007.1
2017-07-12T11:28:17.799Z,1007.12
2017-07-12T11:29:26.657Z,1007.08
2017-07-12T11:30:35.568Z,1007.08
2017-07-12T11:31:44.445Z,1007.11
2017-07-12T11:32:53.306Z,1007.08
2017-07-12T11:34:02.166Z,1007.08
2017-07-12T11:35:11.026Z,1007.05
2017-07-12T11:36:19.884Z,1007.1
2017-07-12T11:37:28.757Z,1007.07
2017-07-12T11:38:37.614Z,1007.15
2017-07-12T11:39:46.471Z,1007.11
2017-07-12T11:40:55.327Z,1007.04
2017-07-12T11:42:04.291Z,1007.12
2017-07-12T11:43:13.149Z,1007.13
2017-07-12T11:44:22.013Z,1007.13
2017-07-12T11:45:31.203Z,1007.13
2017-07-12T11:46:40.070Z,1007.11
2017-07-12T11:47:49.153Z,1007.15
2017-07-12T11:48:58.407Z,1007.07
2017-07-12T11:50:07.262Z,1007.16
2017-07-12T11:51:16.118Z,1007.11
2017-07-12T11:52:24.983Z,1007.15
2017-07-12T11:53:33.868Z,1007.08
2017-07-12T11:54:42.699Z,1007.13
2017-07-12T11:55:51.930Z,1007.11
2017-07-12T11:57:00.786Z,1007.1
2017-07-12T11:58:09.972Z,1007.08
2017-07-12T11:59:19.041Z,1007.1
2017-07-12T12:00:27.963Z,1007.08
2017-07-12T12:01:36.824Z,1007.09
2017-07-12T12:02:45.679Z,1007.05
2017-07-12T12:03:54.540Z,1007.08
2017-07-12T12:05:03.493Z,1007.08
2017-07-12T12:06:12.350Z,1007.07
2017-07-12T12:07:21.223Z,1007.09
2017-07-12T12:08:30.090Z,1007.1
2017-07-12T12:09:38.949Z,1007.04
2017-07-12T12:10:47.856Z,1007.11
2017-07-12T12:11:56.715Z,1007.07
2017-07-12T12:13:05.585Z,1007.09
2017-07-12T12:14:14.441Z,1007.03
2017-07-12T12:15:23.301Z,1007.07
2017-07-12T12:16:32.548Z,1007.09
2017-07-12T12:17:41.400Z,1007.08
2017-07-12T12:18:50.258Z,1007.08
2017-07-12T12:19:59.114Z,1007.1
2017-07-12T12:21:07.970Z,1007.08
2017-07-12T12:22:17.014Z,1007.12
2017-07-12T12:23:25.961Z,1007.12
2017-07-12T12:24:34.927Z,1007.11
2017-07-12T12:25:43.776Z,1007.11
2017-07-12T12:26:52.634Z,1007.12
2017-07-12T12:28:01.646Z,1007.13
2017-07-12T12:29:10.531Z,1007.13
2017-07-12T12:30:19.415Z,1007.11
2017-07-12T12:31:28.282Z,1007.13
2017-07-12T12:32:37.185Z,1007.16
2017-07-12T12:33:46.336Z,1007.17
2017-07-12T12:34:55.192Z,1007.17
2017-07-12T12:36:04.050Z,1007.19
2017-07-12T12:37:12.952Z,1007.14
2017-07-12T12:38:21.810Z,1007.14
2017-07-12T12:39:30.969Z,1007.14
2017-07-12T12:40:39.833Z,1007.18
2017-07-12T12:41:48.695Z,1007.17
2017-07-12T12:42:57.551Z,1007.19
2017-07-12T12:44:06.408Z,1007.18
2017-07-12T12:45:15.319Z,1007.18
2017-07-12T12:46:24.185Z,1007.25
2017-07-12T12:47:33.068Z,1007.23
2017-07-12T12:48:41.928Z,1007.25
2017-07-12T12:49:50.787Z,1007.28
2017-07-12T12:50:59.849Z,1007.32
2017-07-12T12:52:08.718Z,1007.33
2017-07-12T12:53:17.573Z,1007.32
2017-07-12T12:54:26.431Z,1007.32
2017-07-12T12:55:35.288Z,1007.37
2017-07-12T12:56:44.447Z,1007.42
2017-07-12T12:57:53.305Z,1007.39
2017-07-12T12:59:02.163Z,1007.38
2017-07-12T13:00:11.023Z,1007.38
2017-07-12T13:01:19.879Z,1007.44
2017-07-12T13:02:28.836Z,1007.47
2017-07-12T13:03:37.691Z,1007.5
2017-07-12T13:04:46.550Z,1007.48
2017-07-12T13:05:55.408Z,1007.57
2017-07-12T13:07:04.265Z,1007.56
2017-07-12T13:08:13.171Z,1007.54
2017-07-12T13:09:22.030Z,1007.62
2017-07-12T13:10:30.888Z,1007.66
2017-07-12T13:11:39.745Z,1007.61
2017-07-12T13:12:48.602Z,1007.64
2017-07-12T13:13:57.561Z,1007.68
2017-07-12T13:15:06.417Z,1007.62
2017-07-12T13:16:15.275Z,1007.67
2017-07-12T13:17:24.190Z,1007.71
2017-07-12T13:18:32.990Z,1007.66
2017-07-12T13:19:41.848Z,1007.66
2017-07-12T13:20:50.705Z,1007.7
2017-07-12T13:21:59.567Z,1007.66
2017-07-12T13:23:08.425Z,1007.63
2017-07-12T13:24:17.283Z,1007.69
2017-07-12T13:25:26.241Z,1007.67
2017-07-12T13:26:35.100Z,1007.69
2017-07-12T13:27:43.960Z,1007.63
2017-07-12T13:28:52.814Z,1007.67
2017-07-12T13:30:01.674Z,1007.69
2017-07-12T13:31:10.584Z,1007.72
2017-07-12T13:32:19.439Z,1007.8
2017-07-12T13:33:28.296Z,1007.8
2017-07-12T13:34:37.154Z,1007.77
2017-07-12T13:35:46.012Z,1007.83
2017-07-12T13:36:55.021Z,1007.86
2017-07-12T13:38:03.882Z,1007.89
2017-07-12T13:39:12.737Z,1007.91
2017-07-12T13:40:21.596Z,1007.88
2017-07-12T13:41:30.470Z,1007.97
2017-07-12T13:42:39.913Z,1007.94
2017-07-12T13:43:48.770Z,1007.97
2017-07-12T13:44:57.630Z,1008
2017-07-12T13:46:06.496Z,1007.98
2017-07-12T13:47:15.358Z,1008.04
2017-07-12T13:48:24.848Z,1008.06
2017-07-12T13:49:33.708Z,1008.06
2017-07-12T13:50:42.641Z,1008.12
2017-07-12T13:51:51.500Z,1008.16
2017-07-12T13:53:00.433Z,1008.15
2017-07-12T13:54:09.474Z,1008.21
2017-07-12T13:55:18.335Z,1008.21
2017-07-12T13:56:27.194Z,1008.26
2017-07-12T13:57:36.055Z,1008.26
2017-07-12T13:58:44.920Z,1008.2
2017-07-12T13:59:53.941Z,1008.25
2017-07-12T14:01:02.804Z,1008.23
2017-07-12T14:02:11.663Z,1008.21
2017-07-12T14:03:20.522Z,1008.2
2017-07-12T14:04:29.394Z,1008.22
2017-07-12T14:05:38.305Z,1008.21
2017-07-12T14:06:47.167Z,1008.28
2017-07-12T14:07:56.061Z,1008.23